Terminal Aerodrome Forecast
Issued by NWS Omaha/Valley, NE

Home | Current Version | Previous Version | Text Only | Print | Product List | Glossary On
Versions: 1 2 3 4 5 6 7 8 9 10 11 12 13 14 15 16 17 18 19 20 21 22 23 24 25 26 27 28 29 30 31 32 33 34 35
000
FTUS43 KOAX 060826 AAB
TAFLNK
TAF AMD
KLNK 060826Z 0608/0706 20010KT P6SM BKN120
      TEMPO 0609/0613 6SM -TSRA OVC050CB
     FM061600 32014G23KT P6SM OVC050
      TEMPO 0618/0622 6SM -SHRA OVC025
     FM070100 36010KT P6SM OVC050=

USA.gov is the U.S. government's official web portal to all federal, state and local government web resources and services.